sensor_id;sensor_type;location;lat;lon;timestamp;temperature;humidity
20654;DHT22;21083;50.898;4.902;2023-02-15T00:01:05;7.90;99.90
20654;DHT22;21083;50.898;4.902;2023-02-15T00:03:32;7.80;99.90
20654;DHT22;21083;50.898;4.902;2023-02-15T00:05:59;7.80;99.90
20654;DHT22;21083;50.898;4.902;2023-02-15T00:08:26;7.80;99.90
20654;DHT22;21083;50.898;4.902;2023-02-15T00:10:53;7.80;99.90
20654;DHT22;21083;50.898;4.902;2023-02-15T00:13:20;7.70;99.90
20654;DHT22;21083;50.898;4.902;2023-02-15T00:15:47;7.60;99.90
20654;DHT22;21083;50.898;4.902;2023-02-15T00:18:15;7.70;99.90
20654;DHT22;21083;50.898;4.902;2023-02-15T00:20:42;7.70;99.90
20654;DHT22;21083;50.898;4.902;2023-02-15T00:23:09;7.70;99.90
20654;DHT22;21083;50.898;4.902;2023-02-15T00:25:36;7.80;99.90
20654;DHT22;21083;50.898;4.902;2023-02-15T00:28:03;7.70;99.90
20654;DHT22;21083;50.898;4.902;2023-02-15T00:30:31;7.70;99.90
20654;DHT22;21083;50.898;4.902;2023-02-15T00:32:58;7.70;99.90
20654;DHT22;21083;50.898;4.902;2023-02-15T00:35:26;7.60;99.90
20654;DHT22;21083;50.898;4.902;2023-02-15T00:37:53;7.60;99.90
20654;DHT22;21083;50.898;4.902;2023-02-15T00:40:20;7.50;99.90
20654;DHT22;21083;50.898;4.902;2023-02-15T00:42:46;7.50;99.90
20654;DHT22;21083;50.898;4.902;2023-02-15T00:45:13;7.40;99.90
20654;DHT22;21083;50.898;4.902;2023-02-15T00:47:40;7.40;99.90
20654;DHT22;21083;50.898;4.902;2023-02-15T00:50:07;7.20;99.90
20654;DHT22;21083;50.898;4.902;2023-02-15T00:52:36;7.20;99.90
20654;DHT22;21083;50.898;4.902;2023-02-15T00:55:03;7.20;99.90
20654;DHT22;21083;50.898;4.902;2023-02-15T00:57:30;7.10;99.90
20654;DHT22;21083;50.898;4.902;2023-02-15T00:59:57;7.00;99.90
20654;DHT22;21083;50.898;4.902;2023-02-15T01:02:23;7.00;99.90
20654;DHT22;21083;50.898;4.902;2023-02-15T01:04:50;6.90;99.90
20654;DHT22;21083;50.898;4.902;2023-02-15T01:07:17;6.90;99.90
20654;DHT22;21083;50.898;4.902;2023-02-15T01:09:45;6.90;99.90
20654;DHT22;21083;50.898;4.902;2023-02-15T01:12:12;6.80;99.90
20654;DHT22;21083;50.898;4.902;2023-02-15T01:14:39;6.80;99.90
20654;DHT22;21083;50.898;4.902;2023-02-15T01:17:06;6.80;99.90
20654;DHT22;21083;50.898;4.902;2023-02-15T01:19:33;6.70;99.90
20654;DHT22;21083;50.898;4.902;2023-02-15T01:22:00;6.70;99.90
20654;DHT22;21083;50.898;4.902;2023-02-15T01:24:27;6.70;99.90
20654;DHT22;21083;50.898;4.902;2023-02-15T01:26:56;6.60;99.90
20654;DHT22;21083;50.898;4.902;2023-02-15T01:29:23;6.70;99.90
20654;DHT22;21083;50.898;4.902;2023-02-15T01:31:50;6.60;99.90
20654;DHT22;21083;50.898;4.902;2023-02-15T01:34:17;6.50;99.90
20654;DHT22;21083;50.898;4.902;2023-02-15T01:36:44;6.50;99.90
20654;DHT22;21083;50.898;4.902;2023-02-15T01:39:11;6.40;99.90
20654;DHT22;21083;50.898;4.902;2023-02-15T01:41:38;6.40;99.90
20654;DHT22;21083;50.898;4.902;2023-02-15T01:47:03;6.30;99.90
20654;DHT22;21083;50.898;4.902;2023-02-15T01:49:30;6.20;99.90
20654;DHT22;21083;50.898;4.902;2023-02-15T01:51:59;6.20;99.90
20654;DHT22;21083;50.898;4.902;2023-02-15T01:54:30;6.20;99.90
20654;DHT22;21083;50.898;4.902;2023-02-15T01:57:00;6.20;99.90
20654;DHT22;21083;50.898;4.902;2023-02-15T01:59:30;6.20;99.90
20654;DHT22;21083;50.898;4.902;2023-02-15T02:01:59;6.10;99.90
20654;DHT22;21083;50.898;4.902;2023-02-15T02:04:32;6.10;99.90
20654;DHT22;21083;50.898;4.902;2023-02-15T02:07:02;6.10;99.90
20654;DHT22;21083;50.898;4.902;2023-02-15T02:09:30;6.10;99.90
20654;DHT22;21083;50.898;4.902;2023-02-15T02:11:58;6.00;99.90
20654;DHT22;21083;50.898;4.902;2023-02-15T02:14:25;6.00;99.90
20654;DHT22;21083;50.898;4.902;2023-02-15T02:16:58;6.00;99.90
20654;DHT22;21083;50.898;4.902;2023-02-15T02:20:15;6.00;99.90
20654;DHT22;21083;50.898;4.902;2023-02-15T02:23:10;5.90;99.90
20654;DHT22;21083;50.898;4.902;2023-02-15T02:29:17;5.90;99.90
20654;DHT22;21083;50.898;4.902;2023-02-15T02:34:55;5.90;99.90
20654;DHT22;21083;50.898;4.902;2023-02-15T02:37:29;5.90;99.90
20654;DHT22;21083;50.898;4.902;2023-02-15T02:40:03;6.00;99.90
20654;DHT22;21083;50.898;4.902;2023-02-15T02:42:35;6.00;99.90
20654;DHT22;21083;50.898;4.902;2023-02-15T02:45:06;6.10;99.90
20654;DHT22;21083;50.898;4.902;2023-02-15T02:47:38;6.00;99.90
20654;DHT22;21083;50.898;4.902;2023-02-15T02:50:09;6.10;99.90
20654;DHT22;21083;50.898;4.902;2023-02-15T02:52:39;6.10;99.90
20654;DHT22;21083;50.898;4.902;2023-02-15T02:55:11;6.00;99.90
20654;DHT22;21083;50.898;4.902;2023-02-15T02:57:44;5.90;99.90
20654;DHT22;21083;50.898;4.902;2023-02-15T03:00:15;5.80;99.90
20654;DHT22;21083;50.898;4.902;2023-02-15T03:02:44;5.70;99.90
20654;DHT22;21083;50.898;4.902;2023-02-15T03:05:18;5.70;99.90
20654;DHT22;21083;50.898;4.902;2023-02-15T03:07:49;5.60;99.90
20654;DHT22;21083;50.898;4.902;2023-02-15T03:10:19;5.60;99.90
20654;DHT22;21083;50.898;4.902;2023-02-15T03:12:47;5.60;99.90
20654;DHT22;21083;50.898;4.902;2023-02-15T03:15:16;5.60;99.90
20654;DHT22;21083;50.898;4.902;2023-02-15T03:17:48;5.60;99.90
20654;DHT22;21083;50.898;4.902;2023-02-15T03:20:21;5.60;99.90
20654;DHT22;21083;50.898;4.902;2023-02-15T03:22:54;5.60;99.90
20654;DHT22;21083;50.898;4.902;2023-02-15T03:25:24;5.60;99.90
20654;DHT22;21083;50.898;4.902;2023-02-15T03:27:55;5.60;99.90
20654;DHT22;21083;50.898;4.902;2023-02-15T03:30:25;5.60;99.90
20654;DHT22;21083;50.898;4.902;2023-02-15T03:32:53;5.50;99.90
20654;DHT22;21083;50.898;4.902;2023-02-15T03:35:26;5.50;99.90
20654;DHT22;21083;50.898;4.902;2023-02-15T03:37:59;5.50;99.90
20654;DHT22;21083;50.898;4.902;2023-02-15T03:40:29;5.50;99.90
20654;DHT22;21083;50.898;4.902;2023-02-15T03:43:21;5.40;99.90
20654;DHT22;21083;50.898;4.902;2023-02-15T03:45:55;5.40;99.90
20654;DHT22;21083;50.898;4.902;2023-02-15T03:48:26;5.40;99.90
20654;DHT22;21083;50.898;4.902;2023-02-15T03:50:58;5.40;99.90
20654;DHT22;21083;50.898;4.902;2023-02-15T03:53:46;5.50;99.90
20654;DHT22;21083;50.898;4.902;2023-02-15T03:56:13;5.40;99.90
20654;DHT22;21083;50.898;4.902;2023-02-15T03:58:40;5.40;99.90
20654;DHT22;21083;50.898;4.902;2023-02-15T04:01:27;5.30;99.90
20654;DHT22;21083;50.898;4.902;2023-02-15T04:04:19;5.30;99.90
20654;DHT22;21083;50.898;4.902;2023-02-15T04:06:48;5.30;99.90
20654;DHT22;21083;50.898;4.902;2023-02-15T04:09:15;5.20;99.90
20654;DHT22;21083;50.898;4.902;2023-02-15T04:11:59;5.20;99.90
20654;DHT22;21083;50.898;4.902;2023-02-15T04:14:26;5.20;99.90
20654;DHT22;21083;50.898;4.902;2023-02-15T04:17:11;5.10;99.90
20654;DHT22;21083;50.898;4.902;2023-02-15T04:19:37;5.10;99.90
20654;DHT22;21083;50.898;4.902;2023-02-15T04:22:23;5.10;99.90
20654;DHT22;21083;50.898;4.902;2023-02-15T04:25:07;5.00;99.90
20654;DHT22;21083;50.898;4.902;2023-02-15T04:27:39;5.00;99.90
20654;DHT22;21083;50.898;4.902;2023-02-15T04:30:07;5.00;99.90
20654;DHT22;21083;50.898;4.902;2023-02-15T04:32:34;5.00;99.90
20654;DHT22;21083;50.898;4.902;2023-02-15T04:35:02;5.00;99.90
20654;DHT22;21083;50.898;4.902;2023-02-15T04:37:30;5.00;99.90
20654;DHT22;21083;50.898;4.902;2023-02-15T04:39:57;5.00;99.90
20654;DHT22;21083;50.898;4.902;2023-02-15T04:42:25;5.00;99.90
20654;DHT22;21083;50.898;4.902;2023-02-15T04:44:51;5.00;99.90
20654;DHT22;21083;50.898;4.902;2023-02-15T04:47:19;5.00;99.90
20654;DHT22;21083;50.898;4.902;2023-02-15T04:49:45;5.00;99.90
20654;DHT22;21083;50.898;4.902;2023-02-15T04:52:12;5.00;99.90
20654;DHT22;21083;50.898;4.902;2023-02-15T04:54:41;5.00;99.90
20654;DHT22;21083;50.898;4.902;2023-02-15T04:57:08;5.10;99.90
20654;DHT22;21083;50.898;4.902;2023-02-15T04:59:35;5.10;99.90
20654;DHT22;21083;50.898;4.902;2023-02-15T05:02:02;5.10;99.90
20654;DHT22;21083;50.898;4.902;2023-02-15T05:04:29;5.10;99.90
20654;DHT22;21083;50.898;4.902;2023-02-15T05:06:56;5.10;99.90
20654;DHT22;21083;50.898;4.902;2023-02-15T05:09:23;5.10;99.90
20654;DHT22;21083;50.898;4.902;2023-02-15T05:11:51;5.10;99.90
20654;DHT22;21083;50.898;4.902;2023-02-15T05:14:18;5.10;99.90
20654;DHT22;21083;50.898;4.902;2023-02-15T05:16:45;5.10;99.90
20654;DHT22;21083;50.898;4.902;2023-02-15T05:19:12;5.00;99.90
20654;DHT22;21083;50.898;4.902;2023-02-15T05:21:39;5.00;99.90
20654;DHT22;21083;50.898;4.902;2023-02-15T05:24:06;5.00;99.90
20654;DHT22;21083;50.898;4.902;2023-02-15T05:26:55;5.00;99.90
20654;DHT22;21083;50.898;4.902;2023-02-15T05:29:39;4.90;99.90
20654;DHT22;21083;50.898;4.902;2023-02-15T05:32:06;4.90;99.90
20654;DHT22;21083;50.898;4.902;2023-02-15T05:34:33;4.80;99.90
20654;DHT22;21083;50.898;4.902;2023-02-15T05:37:00;4.80;99.90
20654;DHT22;21083;50.898;4.902;2023-02-15T05:39:27;4.80;99.90
20654;DHT22;21083;50.898;4.902;2023-02-15T05:41:58;4.80;99.90
20654;DHT22;21083;50.898;4.902;2023-02-15T05:44:25;4.70;99.90
20654;DHT22;21083;50.898;4.902;2023-02-15T05:46:52;4.70;99.90
20654;DHT22;21083;50.898;4.902;2023-02-15T05:49:19;4.60;99.90
20654;DHT22;21083;50.898;4.902;2023-02-15T05:51:46;4.60;99.90
20654;DHT22;21083;50.898;4.902;2023-02-15T05:54:13;4.60;99.90
20654;DHT22;21083;50.898;4.902;2023-02-15T05:56:40;4.60;99.90
20654;DHT22;21083;50.898;4.902;2023-02-15T05:59:08;4.50;99.90
20654;DHT22;21083;50.898;4.902;2023-02-15T06:01:35;4.50;99.90
20654;DHT22;21083;50.898;4.902;2023-02-15T06:04:02;4.50;99.90
20654;DHT22;21083;50.898;4.902;2023-02-15T06:06:29;4.50;99.90
20654;DHT22;21083;50.898;4.902;2023-02-15T06:08:56;4.50;99.90
20654;DHT22;21083;50.898;4.902;2023-02-15T06:11:23;4.50;99.90
20654;DHT22;21083;50.898;4.902;2023-02-15T06:13:49;4.40;99.90
20654;DHT22;21083;50.898;4.902;2023-02-15T06:16:18;4.50;99.90
20654;DHT22;21083;50.898;4.902;2023-02-15T06:18:44;4.50;99.90
20654;DHT22;21083;50.898;4.902;2023-02-15T06:21:11;4.40;99.90
20654;DHT22;21083;50.898;4.902;2023-02-15T06:23:38;4.30;99.90
20654;DHT22;21083;50.898;4.902;2023-02-15T06:26:05;4.30;99.90
20654;DHT22;21083;50.898;4.902;2023-02-15T06:28:32;4.30;99.90
20654;DHT22;21083;50.898;4.902;2023-02-15T06:30:59;4.30;99.90
20654;DHT22;21083;50.898;4.902;2023-02-15T06:33:27;4.30;99.90
20654;DHT22;21083;50.898;4.902;2023-02-15T06:35:56;4.20;99.90
20654;DHT22;21083;50.898;4.902;2023-02-15T06:38:22;4.20;99.90
20654;DHT22;21083;50.898;4.902;2023-02-15T06:40:49;4.20;99.90
20654;DHT22;21083;50.898;4.902;2023-02-15T06:43:16;4.10;99.90
20654;DHT22;21083;50.898;4.902;2023-02-15T06:45:43;4.10;99.90
20654;DHT22;21083;50.898;4.902;2023-02-15T06:48:10;4.10;99.90
20654;DHT22;21083;50.898;4.902;2023-02-15T06:50:39;4.10;99.90
20654;DHT22;21083;50.898;4.902;2023-02-15T06:53:05;4.10;99.90
20654;DHT22;21083;50.898;4.902;2023-02-15T06:55:32;4.10;99.90
20654;DHT22;21083;50.898;4.902;2023-02-15T06:57:59;4.10;99.90
20654;DHT22;21083;50.898;4.902;2023-02-15T07:00:26;4.10;99.90
20654;DHT22;21083;50.898;4.902;2023-02-15T07:02:53;4.10;99.90
20654;DHT22;21083;50.898;4.902;2023-02-15T07:05:23;4.10;99.90
20654;DHT22;21083;50.898;4.902;2023-02-15T07:07:51;4.10;99.90
20654;DHT22;21083;50.898;4.902;2023-02-15T07:10:18;4.10;99.90
20654;DHT22;21083;50.898;4.902;2023-02-15T07:12:45;4.10;99.90
20654;DHT22;21083;50.898;4.902;2023-02-15T07:15:13;4.10;99.90
20654;DHT22;21083;50.898;4.902;2023-02-15T07:17:41;4.10;99.90
20654;DHT22;21083;50.898;4.902;2023-02-15T07:20:10;4.10;99.90
20654;DHT22;21083;50.898;4.902;2023-02-15T07:22:37;4.10;99.90
20654;DHT22;21083;50.898;4.902;2023-02-15T07:25:08;4.10;99.90
20654;DHT22;21083;50.898;4.902;2023-02-15T07:27:35;4.10;99.90
20654;DHT22;21083;50.898;4.902;2023-02-15T07:30:03;4.20;99.90
20654;DHT22;21083;50.898;4.902;2023-02-15T07:32:31;4.20;99.90
20654;DHT22;21083;50.898;4.902;2023-02-15T07:34:58;4.20;99.90
20654;DHT22;21083;50.898;4.902;2023-02-15T07:37:26;4.20;99.90
20654;DHT22;21083;50.898;4.902;2023-02-15T07:39:53;4.30;99.90
20654;DHT22;21083;50.898;4.902;2023-02-15T07:42:21;4.30;99.90
20654;DHT22;21083;50.898;4.902;2023-02-15T07:44:48;4.30;99.90
20654;DHT22;21083;50.898;4.902;2023-02-15T07:47:15;4.40;99.90
20654;DHT22;21083;50.898;4.902;2023-02-15T07:49:42;4.50;99.90
20654;DHT22;21083;50.898;4.902;2023-02-15T07:52:09;4.50;99.90
20654;DHT22;21083;50.898;4.902;2023-02-15T07:54:36;4.50;99.90
20654;DHT22;21083;50.898;4.902;2023-02-15T07:57:03;4.60;99.90
20654;DHT22;21083;50.898;4.902;2023-02-15T07:59:31;4.70;99.90
20654;DHT22;21083;50.898;4.902;2023-02-15T08:01:58;4.70;99.90
20654;DHT22;21083;50.898;4.902;2023-02-15T08:04:25;4.80;99.90
20654;DHT22;21083;50.898;4.902;2023-02-15T08:06:53;4.80;99.90
20654;DHT22;21083;50.898;4.902;2023-02-15T08:09:20;4.90;99.90
20654;DHT22;21083;50.898;4.902;2023-02-15T08:11:48;5.00;99.90
20654;DHT22;21083;50.898;4.902;2023-02-15T08:14:16;5.00;99.90
20654;DHT22;21083;50.898;4.902;2023-02-15T08:16:46;5.10;99.90
20654;DHT22;21083;50.898;4.902;2023-02-15T08:19:15;5.20;99.90
20654;DHT22;21083;50.898;4.902;2023-02-15T08:21:43;5.20;99.90
20654;DHT22;21083;50.898;4.902;2023-02-15T08:24:12;5.30;99.90
20654;DHT22;21083;50.898;4.902;2023-02-15T08:26:40;5.40;99.90
20654;DHT22;21083;50.898;4.902;2023-02-15T08:29:08;5.50;99.90
20654;DHT22;21083;50.898;4.902;2023-02-15T08:31:35;5.60;99.90
20654;DHT22;21083;50.898;4.902;2023-02-15T08:34:04;5.70;99.90
20654;DHT22;21083;50.898;4.902;2023-02-15T08:36:32;5.80;99.90
20654;DHT22;21083;50.898;4.902;2023-02-15T08:39:01;5.90;99.90
20654;DHT22;21083;50.898;4.902;2023-02-15T08:41:30;6.00;99.90
20654;DHT22;21083;50.898;4.902;2023-02-15T08:43:58;6.10;99.90
20654;DHT22;21083;50.898;4.902;2023-02-15T08:46:27;6.20;99.90
20654;DHT22;21083;50.898;4.902;2023-02-15T08:48:54;6.40;99.90
20654;DHT22;21083;50.898;4.902;2023-02-15T08:51:24;6.40;99.90
20654;DHT22;21083;50.898;4.902;2023-02-15T08:53:53;6.40;99.90
20654;DHT22;21083;50.898;4.902;2023-02-15T08:56:21;6.50;99.90
20654;DHT22;21083;50.898;4.902;2023-02-15T08:58:49;6.60;99.90
20654;DHT22;21083;50.898;4.902;2023-02-15T09:01:17;6.60;99.90
20654;DHT22;21083;50.898;4.902;2023-02-15T09:03:46;6.70;99.90
20654;DHT22;21083;50.898;4.902;2023-02-15T09:06:13;6.80;99.90
20654;DHT22;21083;50.898;4.902;2023-02-15T09:08:42;6.90;99.90
20654;DHT22;21083;50.898;4.902;2023-02-15T09:11:10;7.00;99.90
20654;DHT22;21083;50.898;4.902;2023-02-15T09:13:37;7.20;99.90
20654;DHT22;21083;50.898;4.902;2023-02-15T09:16:06;7.30;99.90
20654;DHT22;21083;50.898;4.902;2023-02-15T09:18:35;7.40;99.90
20654;DHT22;21083;50.898;4.902;2023-02-15T09:21:07;7.60;99.90
20654;DHT22;21083;50.898;4.902;2023-02-15T09:23:35;7.70;99.90
20654;DHT22;21083;50.898;4.902;2023-02-15T09:26:05;7.80;99.90
20654;DHT22;21083;50.898;4.902;2023-02-15T09:28:32;8.00;99.90
20654;DHT22;21083;50.898;4.902;2023-02-15T09:31:07;7.90;99.90
20654;DHT22;21083;50.898;4.902;2023-02-15T09:33:35;7.90;99.90
20654;DHT22;21083;50.898;4.902;2023-02-15T09:36:02;8.00;99.90
20654;DHT22;21083;50.898;4.902;2023-02-15T09:38:29;8.10;99.90
20654;DHT22;21083;50.898;4.902;2023-02-15T09:41:10;8.30;99.90
20654;DHT22;21083;50.898;4.902;2023-02-15T09:43:44;8.30;99.90
20654;DHT22;21083;50.898;4.902;2023-02-15T09:46:34;8.30;99.90
20654;DHT22;21083;50.898;4.902;2023-02-15T09:49:12;8.30;99.90
20654;DHT22;21083;50.898;4.902;2023-02-15T09:51:57;8.40;99.90
20654;DHT22;21083;50.898;4.902;2023-02-15T09:54:37;8.50;99.90
20654;DHT22;21083;50.898;4.902;2023-02-15T09:57:18;8.60;99.90
20654;DHT22;21083;50.898;4.902;2023-02-15T09:59:56;8.70;99.90
20654;DHT22;21083;50.898;4.902;2023-02-15T10:02:34;8.90;99.90
20654;DHT22;21083;50.898;4.902;2023-02-15T10:05:14;9.00;99.90
20654;DHT22;21083;50.898;4.902;2023-02-15T10:08:10;9.30;99.90
20654;DHT22;21083;50.898;4.902;2023-02-15T10:10:50;9.40;99.90
20654;DHT22;21083;50.898;4.902;2023-02-15T10:13:33;9.50;99.90
20654;DHT22;21083;50.898;4.902;2023-02-15T10:16:14;9.70;99.90
20654;DHT22;21083;50.898;4.902;2023-02-15T10:18:55;9.90;99.90
20654;DHT22;21083;50.898;4.902;2023-02-15T10:21:32;9.90;99.90
20654;DHT22;21083;50.898;4.902;2023-02-15T10:24:26;10.20;99.90
20654;DHT22;21083;50.898;4.902;2023-02-15T10:26:59;10.50;99.90
20654;DHT22;21083;50.898;4.902;2023-02-15T10:29:34;10.70;99.90
20654;DHT22;21083;50.898;4.902;2023-02-15T10:32:09;10.90;99.90
20654;DHT22;21083;50.898;4.902;2023-02-15T10:34:46;10.90;99.90
20654;DHT22;21083;50.898;4.902;2023-02-15T10:37:31;11.10;99.90
20654;DHT22;21083;50.898;4.902;2023-02-15T10:40:09;11.20;99.90
20654;DHT22;21083;50.898;4.902;2023-02-15T10:42:49;11.30;99.90
20654;DHT22;21083;50.898;4.902;2023-02-15T10:45:28;11.60;99.90
20654;DHT22;21083;50.898;4.902;2023-02-15T10:48:16;11.80;99.90
20654;DHT22;21083;50.898;4.902;2023-02-15T10:50:48;12.10;99.90
20654;DHT22;21083;50.898;4.902;2023-02-15T10:56:35;12.80;99.90
20654;DHT22;21083;50.898;4.902;2023-02-15T10:59:27;13.00;99.90
20654;DHT22;21083;50.898;4.902;2023-02-15T11:02:02;13.20;99.90
20654;DHT22;21083;50.898;4.902;2023-02-15T11:04:40;13.20;99.90
20654;DHT22;21083;50.898;4.902;2023-02-15T11:07:16;13.20;99.90
20654;DHT22;21083;50.898;4.902;2023-02-15T11:09:48;13.30;99.90
20654;DHT22;21083;50.898;4.902;2023-02-15T11:12:18;13.40;99.90
20654;DHT22;21083;50.898;4.902;2023-02-15T11:14:51;13.80;99.90
20654;DHT22;21083;50.898;4.902;2023-02-15T11:17:25;14.10;99.90
20654;DHT22;21083;50.898;4.902;2023-02-15T11:19:58;14.10;99.90
20654;DHT22;21083;50.898;4.902;2023-02-15T11:22:29;14.30;99.90
20654;DHT22;21083;50.898;4.902;2023-02-15T11:25:16;14.50;99.90
20654;DHT22;21083;50.898;4.902;2023-02-15T11:27:46;14.70;99.90
20654;DHT22;21083;50.898;4.902;2023-02-15T11:30:17;14.70;99.90
20654;DHT22;21083;50.898;4.902;2023-02-15T11:32:48;14.90;99.90
20654;DHT22;21083;50.898;4.902;2023-02-15T11:35:24;15.00;99.90
20654;DHT22;21083;50.898;4.902;2023-02-15T11:37:57;15.20;99.90
20654;DHT22;21083;50.898;4.902;2023-02-15T11:40:27;15.20;99.90
20654;DHT22;21083;50.898;4.902;2023-02-15T11:42:56;15.30;99.90
20654;DHT22;21083;50.898;4.902;2023-02-15T11:45:28;15.30;99.90
20654;DHT22;21083;50.898;4.902;2023-02-15T11:47:57;15.40;99.90
20654;DHT22;21083;50.898;4.902;2023-02-15T11:50:27;15.20;99.90
20654;DHT22;21083;50.898;4.902;2023-02-15T11:52:58;15.50;99.90
20654;DHT22;21083;50.898;4.902;2023-02-15T11:55:27;15.60;99.90
20654;DHT22;21083;50.898;4.902;2023-02-15T11:57:59;15.70;99.90
20654;DHT22;21083;50.898;4.902;2023-02-15T12:00:33;15.70;99.90
20654;DHT22;21083;50.898;4.902;2023-02-15T12:03:12;15.70;99.90
20654;DHT22;21083;50.898;4.902;2023-02-15T12:05:45;15.50;99.90
20654;DHT22;21083;50.898;4.902;2023-02-15T12:08:18;15.50;99.90
20654;DHT22;21083;50.898;4.902;2023-02-15T12:11:02;15.20;99.90
20654;DHT22;21083;50.898;4.902;2023-02-15T12:13:30;15.40;99.90
20654;DHT22;21083;50.898;4.902;2023-02-15T12:16:06;15.60;99.90
20654;DHT22;21083;50.898;4.902;2023-02-15T12:18:37;15.80;99.90
20654;DHT22;21083;50.898;4.902;2023-02-15T12:21:07;15.90;99.90
20654;DHT22;21083;50.898;4.902;2023-02-15T12:23:43;16.10;99.90
20654;DHT22;21083;50.898;4.902;2023-02-15T12:26:15;15.90;99.90
20654;DHT22;21083;50.898;4.902;2023-02-15T12:28:50;15.70;99.90
20654;DHT22;21083;50.898;4.902;2023-02-15T12:31:21;15.40;99.90
20654;DHT22;21083;50.898;4.902;2023-02-15T12:33:53;15.40;99.90
20654;DHT22;21083;50.898;4.902;2023-02-15T12:36:21;15.30;99.90
20654;DHT22;21083;50.898;4.902;2023-02-15T12:39:15;15.10;99.90
20654;DHT22;21083;50.898;4.902;2023-02-15T12:41:46;15.30;99.90
20654;DHT22;21083;50.898;4.902;2023-02-15T12:44:21;15.40;99.90
20654;DHT22;21083;50.898;4.902;2023-02-15T12:46:57;15.50;99.90
20654;DHT22;21083;50.898;4.902;2023-02-15T12:49:26;15.70;99.90
20654;DHT22;21083;50.898;4.902;2023-02-15T12:51:56;15.60;99.90
20654;DHT22;21083;50.898;4.902;2023-02-15T12:54:33;15.60;99.90
20654;DHT22;21083;50.898;4.902;2023-02-15T12:57:23;15.70;99.90
20654;DHT22;21083;50.898;4.902;2023-02-15T12:59:53;15.80;99.90
20654;DHT22;21083;50.898;4.902;2023-02-15T13:02:26;15.70;99.90
20654;DHT22;21083;50.898;4.902;2023-02-15T13:04:56;15.60;99.90
20654;DHT22;21083;50.898;4.902;2023-02-15T13:07:25;15.50;99.90
20654;DHT22;21083;50.898;4.902;2023-02-15T13:09:56;15.20;99.90
20654;DHT22;21083;50.898;4.902;2023-02-15T13:12:24;15.50;99.90
20654;DHT22;21083;50.898;4.902;2023-02-15T13:14:54;15.80;99.90
20654;DHT22;21083;50.898;4.902;2023-02-15T13:17:25;15.80;99.90
20654;DHT22;21083;50.898;4.902;2023-02-15T13:19:58;15.90;99.90
20654;DHT22;21083;50.898;4.902;2023-02-15T13:22:31;16.10;99.90
20654;DHT22;21083;50.898;4.902;2023-02-15T13:25:04;16.10;99.90
20654;DHT22;21083;50.898;4.902;2023-02-15T13:27:36;15.70;99.90
20654;DHT22;21083;50.898;4.902;2023-02-15T13:30:14;15.50;99.90
20654;DHT22;21083;50.898;4.902;2023-02-15T13:32:45;15.90;99.90
20654;DHT22;21083;50.898;4.902;2023-02-15T13:35:17;16.50;99.90
20654;DHT22;21083;50.898;4.902;2023-02-15T13:38:06;16.50;99.90
20654;DHT22;21083;50.898;4.902;2023-02-15T13:40:40;17.00;99.90
20654;DHT22;21083;50.898;4.902;2023-02-15T13:46:11;17.10;99.90
20654;DHT22;21083;50.898;4.902;2023-02-15T13:48:45;17.60;99.90
20654;DHT22;21083;50.898;4.902;2023-02-15T13:51:21;17.70;99.90
20654;DHT22;21083;50.898;4.902;2023-02-15T13:54:01;17.90;99.90
20654;DHT22;21083;50.898;4.902;2023-02-15T13:56:41;17.40;99.90
20654;DHT22;21083;50.898;4.902;2023-02-15T13:59:35;17.50;99.90
20654;DHT22;21083;50.898;4.902;2023-02-15T14:05:54;17.20;99.90
20654;DHT22;21083;50.898;4.902;2023-02-15T14:08:37;16.90;99.90
20654;DHT22;21083;50.898;4.902;2023-02-15T14:11:11;17.10;99.90
20654;DHT22;21083;50.898;4.902;2023-02-15T14:14:04;17.00;99.90
20654;DHT22;21083;50.898;4.902;2023-02-15T14:16:41;16.90;99.90
20654;DHT22;21083;50.898;4.902;2023-02-15T14:19:17;16.60;99.90
20654;DHT22;21083;50.898;4.902;2023-02-15T14:21:50;16.40;99.90
20654;DHT22;21083;50.898;4.902;2023-02-15T14:24:29;16.10;99.90
20654;DHT22;21083;50.898;4.902;2023-02-15T14:27:09;15.90;99.90
20654;DHT22;21083;50.898;4.902;2023-02-15T14:29:49;16.10;99.90
20654;DHT22;21083;50.898;4.902;2023-02-15T14:32:22;16.00;99.90
20654;DHT22;21083;50.898;4.902;2023-02-15T14:34:53;16.60;99.90
20654;DHT22;21083;50.898;4.902;2023-02-15T14:37:31;16.90;99.90
20654;DHT22;21083;50.898;4.902;2023-02-15T14:40:05;16.90;99.90
20654;DHT22;21083;50.898;4.902;2023-02-15T14:42:53;16.70;99.90
20654;DHT22;21083;50.898;4.902;2023-02-15T14:45:28;16.20;99.90
20654;DHT22;21083;50.898;4.902;2023-02-15T14:48:03;16.10;99.90
20654;DHT22;21083;50.898;4.902;2023-02-15T14:50:43;16.00;99.90
20654;DHT22;21083;50.898;4.902;2023-02-15T14:53:35;15.80;99.90
20654;DHT22;21083;50.898;4.902;2023-02-15T14:56:26;15.60;99.90
20654;DHT22;21083;50.898;4.902;2023-02-15T14:58:59;15.50;99.90
20654;DHT22;21083;50.898;4.902;2023-02-15T15:01:28;15.20;99.90
20654;DHT22;21083;50.898;4.902;2023-02-15T15:03:58;15.10;99.90
20654;DHT22;21083;50.898;4.902;2023-02-15T15:06:28;15.10;99.90
20654;DHT22;21083;50.898;4.902;2023-02-15T15:08:59;15.00;99.90
20654;DHT22;21083;50.898;4.902;2023-02-15T15:11:43;15.00;99.90
20654;DHT22;21083;50.898;4.902;2023-02-15T15:16:53;15.00;99.90
20654;DHT22;21083;50.898;4.902;2023-02-15T15:22:35;15.00;99.90
20654;DHT22;21083;50.898;4.902;2023-02-15T15:25:08;14.80;99.90
20654;DHT22;21083;50.898;4.902;2023-02-15T15:27:46;14.60;99.90
20654;DHT22;21083;50.898;4.902;2023-02-15T15:30:47;14.60;99.90
20654;DHT22;21083;50.898;4.902;2023-02-15T15:33:46;14.50;99.90
20654;DHT22;21083;50.898;4.902;2023-02-15T15:39:27;14.10;99.90
20654;DHT22;21083;50.898;4.902;2023-02-15T15:42:03;14.20;99.90
20654;DHT22;21083;50.898;4.902;2023-02-15T15:45:01;14.30;99.90
20654;DHT22;21083;50.898;4.902;2023-02-15T15:47:49;14.30;99.90
20654;DHT22;21083;50.898;4.902;2023-02-15T15:50:19;14.20;99.90
20654;DHT22;21083;50.898;4.902;2023-02-15T15:52:49;14.10;99.90
20654;DHT22;21083;50.898;4.902;2023-02-15T15:55:18;14.10;99.90
20654;DHT22;21083;50.898;4.902;2023-02-15T15:57:48;14.10;99.90
20654;DHT22;21083;50.898;4.902;2023-02-15T16:00:39;13.90;99.90
20654;DHT22;21083;50.898;4.902;2023-02-15T16:03:14;13.60;99.90
20654;DHT22;21083;50.898;4.902;2023-02-15T16:05:42;13.70;99.90
20654;DHT22;21083;50.898;4.902;2023-02-15T16:08:09;13.60;99.90
20654;DHT22;21083;50.898;4.902;2023-02-15T16:10:36;13.60;99.90
20654;DHT22;21083;50.898;4.902;2023-02-15T16:13:05;13.50;99.90
20654;DHT22;21083;50.898;4.902;2023-02-15T16:15:36;13.50;99.90
20654;DHT22;21083;50.898;4.902;2023-02-15T16:18:05;13.60;99.90
20654;DHT22;21083;50.898;4.902;2023-02-15T16:20:33;13.40;99.90
20654;DHT22;21083;50.898;4.902;2023-02-15T16:23:19;13.40;99.90
20654;DHT22;21083;50.898;4.902;2023-02-15T16:25:55;13.20;99.90
20654;DHT22;21083;50.898;4.902;2023-02-15T16:28:26;13.20;99.90
20654;DHT22;21083;50.898;4.902;2023-02-15T16:31:05;13.10;99.90
20654;DHT22;21083;50.898;4.902;2023-02-15T16:33:38;13.10;99.90
20654;DHT22;21083;50.898;4.902;2023-02-15T16:36:11;13.10;99.90
20654;DHT22;21083;50.898;4.902;2023-02-15T16:41:38;13.10;99.90